sensor_id;sensor_type;location;lat;lon;timestamp;temperature;humidity
1079;DHT22;528;47.872;11.478;2022-07-25T05:30:19;19.40;99.90
1079;DHT22;528;47.872;11.478;2022-07-25T05:32:46;19.50;99.90
1079;DHT22;528;47.872;11.478;2022-07-25T05:35:16;19.60;99.90
1079;DHT22;528;47.872;11.478;2022-07-25T05:38:16;19.70;99.90
1079;DHT22;528;47.872;11.478;2022-07-25T05:41:04;19.80;99.90
1079;DHT22;528;47.872;11.478;2022-07-25T05:43:33;20.00;99.90
1079;DHT22;528;47.872;11.478;2022-07-25T05:46:03;20.10;99.90
1079;DHT22;528;47.872;11.478;2022-07-25T05:48:31;20.20;99.90
1079;DHT22;528;47.872;11.478;2022-07-25T05:50:58;20.30;99.90
1079;DHT22;528;47.872;11.478;2022-07-25T05:53:25;20.30;99.90
1079;DHT22;528;47.872;11.478;2022-07-25T05:55:52;20.40;99.90
1079;DHT22;528;47.872;11.478;2022-07-25T05:58:19;20.50;99.90
1079;DHT22;528;47.872;11.478;2022-07-25T06:00:46;20.60;99.90
1079;DHT22;528;47.872;11.478;2022-07-25T06:03:17;20.60;99.90
1079;DHT22;528;47.872;11.478;2022-07-25T06:05:44;20.80;99.90
1079;DHT22;528;47.872;11.478;2022-07-25T06:08:12;20.80;99.90
1079;DHT22;528;47.872;11.478;2022-07-25T06:10:39;20.90;99.90
1079;DHT22;528;47.872;11.478;2022-07-25T06:13:06;20.90;99.90
1079;DHT22;528;47.872;11.478;2022-07-25T06:15:34;21.00;99.90
1079;DHT22;528;47.872;11.478;2022-07-25T06:18:01;21.10;99.90
1079;DHT22;528;47.872;11.478;2022-07-25T06:20:30;21.20;99.90
1079;DHT22;528;47.872;11.478;2022-07-25T06:22:57;21.30;99.90
1079;DHT22;528;47.872;11.478;2022-07-25T06:25:25;21.40;99.90
1079;DHT22;528;47.872;11.478;2022-07-25T06:27:52;21.50;99.90
1079;DHT22;528;47.872;11.478;2022-07-25T06:30:19;21.60;99.90
1079;DHT22;528;47.872;11.478;2022-07-25T06:32:47;21.70;99.90
1079;DHT22;528;47.872;11.478;2022-07-25T06:35:14;21.80;99.90
1079;DHT22;528;47.872;11.478;2022-07-25T06:37:42;21.90;99.90
1079;DHT22;528;47.872;11.478;2022-07-25T06:40:10;22.00;99.90
1079;DHT22;528;47.872;11.478;2022-07-25T06:42:38;22.20;99.90
1079;DHT22;528;47.872;11.478;2022-07-25T06:45:06;22.30;99.90
1079;DHT22;528;47.872;11.478;2022-07-25T06:47:34;22.40;99.90
1079;DHT22;528;47.872;11.478;2022-07-25T06:50:03;22.60;99.90
1079;DHT22;528;47.872;11.478;2022-07-25T06:52:30;22.80;99.90
1079;DHT22;528;47.872;11.478;2022-07-25T06:54:59;23.00;99.90
1079;DHT22;528;47.872;11.478;2022-07-25T06:57:26;23.20;99.90
1079;DHT22;528;47.872;11.478;2022-07-25T06:59:54;23.40;99.90
1079;DHT22;528;47.872;11.478;2022-07-25T07:02:21;23.60;99.90
1079;DHT22;528;47.872;11.478;2022-07-25T07:04:48;23.70;99.90
1079;DHT22;528;47.872;11.478;2022-07-25T07:07:16;23.90;99.90
1079;DHT22;528;47.872;11.478;2022-07-25T07:09:44;24.20;99.90
1079;DHT22;528;47.872;11.478;2022-07-25T07:12:13;24.30;99.90
1079;DHT22;528;47.872;11.478;2022-07-25T07:14:40;24.50;99.90
1079;DHT22;528;47.872;11.478;2022-07-25T07:17:09;24.70;99.90
1079;DHT22;528;47.872;11.478;2022-07-25T07:19:36;25.00;99.90
1079;DHT22;528;47.872;11.478;2022-07-25T07:22:08;25.10;99.90
1079;DHT22;528;47.872;11.478;2022-07-25T07:24:35;25.20;99.90
1079;DHT22;528;47.872;11.478;2022-07-25T07:27:03;25.40;99.90
1079;DHT22;528;47.872;11.478;2022-07-25T07:29:31;25.60;99.90
1079;DHT22;528;47.872;11.478;2022-07-25T07:31:59;25.70;99.90
1079;DHT22;528;47.872;11.478;2022-07-25T07:34:26;25.90;99.90
1079;DHT22;528;47.872;11.478;2022-07-25T07:36:53;26.00;99.90
1079;DHT22;528;47.872;11.478;2022-07-25T07:39:20;26.30;99.90
1079;DHT22;528;47.872;11.478;2022-07-25T07:47:33;26.70;99.90
1079;DHT22;528;47.872;11.478;2022-07-25T07:50:42;26.80;99.90
1079;DHT22;528;47.872;11.478;2022-07-25T07:56:32;27.10;99.90
1079;DHT22;528;47.872;11.478;2022-07-25T08:00:03;27.30;99.90
1079;DHT22;528;47.872;11.478;2022-07-25T08:02:59;27.40;99.90
1079;DHT22;528;47.872;11.478;2022-07-25T08:05:37;27.60;99.90
1079;DHT22;528;47.872;11.478;2022-07-25T08:08:54;27.70;99.30
1079;DHT22;528;47.872;11.478;2022-07-25T08:11:34;27.80;99.20
1079;DHT22;528;47.872;11.478;2022-07-25T08:14:33;28.00;98.40
1079;DHT22;528;47.872;11.478;2022-07-25T08:53:09;29.60;93.70
1079;DHT22;528;47.872;11.478;2022-07-25T09:00:02;29.80;93.30
1079;DHT22;528;47.872;11.478;2022-07-25T09:08:28;30.10;91.70
1079;DHT22;528;47.872;11.478;2022-07-25T09:10:59;30.20;92.70
1079;DHT22;528;47.872;11.478;2022-07-25T09:13:28;30.40;93.00
1079;DHT22;528;47.872;11.478;2022-07-25T09:16:11;30.50;93.00
1079;DHT22;528;47.872;11.478;2022-07-25T09:18:45;30.60;90.60
1079;DHT22;528;47.872;11.478;2022-07-25T09:21:29;30.60;90.10
1079;DHT22;528;47.872;11.478;2022-07-25T09:24:14;30.70;90.30
1079;DHT22;528;47.872;11.478;2022-07-25T09:26:43;30.80;87.40
1079;DHT22;528;47.872;11.478;2022-07-25T09:29:19;30.80;86.00
1079;DHT22;528;47.872;11.478;2022-07-25T09:31:50;31.00;88.00
1079;DHT22;528;47.872;11.478;2022-07-25T09:34:37;31.10;88.60
1079;DHT22;528;47.872;11.478;2022-07-25T09:37:11;31.20;89.70
1079;DHT22;528;47.872;11.478;2022-07-25T09:39:46;31.20;86.10
1079;DHT22;528;47.872;11.478;2022-07-25T09:42:33;31.20;87.00
1079;DHT22;528;47.872;11.478;2022-07-25T09:45:33;31.30;86.10
1079;DHT22;528;47.872;11.478;2022-07-25T09:48:19;31.30;86.60
1079;DHT22;528;47.872;11.478;2022-07-25T09:59:26;31.60;79.60
1079;DHT22;528;47.872;11.478;2022-07-25T10:02:02;31.80;80.90
1079;DHT22;528;47.872;11.478;2022-07-25T10:04:44;31.70;80.70
1079;DHT22;528;47.872;11.478;2022-07-25T10:07:14;31.80;81.30
1079;DHT22;528;47.872;11.478;2022-07-25T10:09:47;31.70;82.50
1079;DHT22;528;47.872;11.478;2022-07-25T10:12:21;31.80;78.10
1079;DHT22;528;47.872;11.478;2022-07-25T10:15:13;31.90;79.10
1079;DHT22;528;47.872;11.478;2022-07-25T10:17:43;32.00;78.70
1079;DHT22;528;47.872;11.478;2022-07-25T10:20:26;32.10;77.20
1079;DHT22;528;47.872;11.478;2022-07-25T10:22:56;32.10;76.00
1079;DHT22;528;47.872;11.478;2022-07-25T10:25:46;32.20;72.60
1079;DHT22;528;47.872;11.478;2022-07-25T10:28:20;32.20;71.20
1079;DHT22;528;47.872;11.478;2022-07-25T10:30:56;32.20;66.30
1079;DHT22;528;47.872;11.478;2022-07-25T10:33:40;32.20;67.90
1079;DHT22;528;47.872;11.478;2022-07-25T10:36:09;32.30;69.80
1079;DHT22;528;47.872;11.478;2022-07-25T10:38:40;32.40;69.30
1079;DHT22;528;47.872;11.478;2022-07-25T10:41:11;32.50;66.70
1079;DHT22;528;47.872;11.478;2022-07-25T10:43:40;32.50;64.80
1079;DHT22;528;47.872;11.478;2022-07-25T10:46:13;32.50;63.90
1079;DHT22;528;47.872;11.478;2022-07-25T10:48:41;32.60;65.90
1079;DHT22;528;47.872;11.478;2022-07-25T10:51:10;32.70;64.60
1079;DHT22;528;47.872;11.478;2022-07-25T10:53:44;32.70;66.30
1079;DHT22;528;47.872;11.478;2022-07-25T10:56:17;32.70;65.40
1079;DHT22;528;47.872;11.478;2022-07-25T10:58:52;32.70;64.50
1079;DHT22;528;47.872;11.478;2022-07-25T11:01:25;32.70;65.10
1079;DHT22;528;47.872;11.478;2022-07-25T11:04:14;32.80;62.20
1079;DHT22;528;47.872;11.478;2022-07-25T11:07:14;32.80;65.00
1079;DHT22;528;47.872;11.478;2022-07-25T11:10:09;32.90;65.30
1079;DHT22;528;47.872;11.478;2022-07-25T11:15:21;33.00;64.40
1079;DHT22;528;47.872;11.478;2022-07-25T11:23:55;33.10;63.20
1079;DHT22;528;47.872;11.478;2022-07-25T11:26:44;33.20;59.00
1079;DHT22;528;47.872;11.478;2022-07-25T11:29:22;33.20;60.90
1079;DHT22;528;47.872;11.478;2022-07-25T11:31:56;33.20;60.40
1079;DHT22;528;47.872;11.478;2022-07-25T11:34:29;33.30;59.50
1079;DHT22;528;47.872;11.478;2022-07-25T11:37:03;33.30;58.80
1079;DHT22;528;47.872;11.478;2022-07-25T11:39:46;33.40;60.30
1079;DHT22;528;47.872;11.478;2022-07-25T11:42:17;33.40;60.20
1079;DHT22;528;47.872;11.478;2022-07-25T11:44:52;33.50;60.00
1079;DHT22;528;47.872;11.478;2022-07-25T11:47:25;33.50;57.70
1079;DHT22;528;47.872;11.478;2022-07-25T11:50:07;33.50;59.50
1079;DHT22;528;47.872;11.478;2022-07-25T11:52:40;33.70;59.60
1079;DHT22;528;47.872;11.478;2022-07-25T11:55:19;33.70;59.40
1079;DHT22;528;47.872;11.478;2022-07-25T11:57:59;33.80;58.20
1079;DHT22;528;47.872;11.478;2022-07-25T12:00:29;33.80;58.00
1079;DHT22;528;47.872;11.478;2022-07-25T12:03:12;33.80;58.70
1079;DHT22;528;47.872;11.478;2022-07-25T12:05:42;33.80;58.50
1079;DHT22;528;47.872;11.478;2022-07-25T12:08:20;33.80;58.00
1079;DHT22;528;47.872;11.478;2022-07-25T12:10:51;33.80;58.40
1079;DHT22;528;47.872;11.478;2022-07-25T12:13:26;33.90;57.70
1079;DHT22;528;47.872;11.478;2022-07-25T12:15:55;34.00;59.20
1079;DHT22;528;47.872;11.478;2022-07-25T12:18:26;34.00;59.60
1079;DHT22;528;47.872;11.478;2022-07-25T12:21:22;34.00;57.70
1079;DHT22;528;47.872;11.478;2022-07-25T12:24:05;34.00;57.60
1079;DHT22;528;47.872;11.478;2022-07-25T12:26:47;34.00;57.30
1079;DHT22;528;47.872;11.478;2022-07-25T12:29:21;34.00;57.90
1079;DHT22;528;47.872;11.478;2022-07-25T13:04:39;33.90;56.40
1079;DHT22;528;47.872;11.478;2022-07-25T13:07:45;33.90;56.80
1079;DHT22;528;47.872;11.478;2022-07-25T13:13:01;33.80;57.70
1079;DHT22;528;47.872;11.478;2022-07-25T13:16:01;33.80;59.00
1079;DHT22;528;47.872;11.478;2022-07-25T13:22:22;33.80;56.30
1079;DHT22;528;47.872;11.478;2022-07-25T13:25:07;33.80;55.00
1079;DHT22;528;47.872;11.478;2022-07-25T13:27:36;33.90;54.70
1079;DHT22;528;47.872;11.478;2022-07-25T13:30:34;33.90;55.20
1079;DHT22;528;47.872;11.478;2022-07-25T15:38:04;33.50;56.20
1079;DHT22;528;47.872;11.478;2022-07-25T15:40:34;33.40;55.30
1079;DHT22;528;47.872;11.478;2022-07-25T15:43:05;33.40;55.60
1079;DHT22;528;47.872;11.478;2022-07-25T15:45:36;33.40;55.90
1079;DHT22;528;47.872;11.478;2022-07-25T15:48:17;33.30;56.80
1079;DHT22;528;47.872;11.478;2022-07-25T15:50:57;33.30;54.90
1079;DHT22;528;47.872;11.478;2022-07-25T15:53:33;33.30;56.40
1079;DHT22;528;47.872;11.478;2022-07-25T15:56:09;33.20;56.00
1079;DHT22;528;47.872;11.478;2022-07-25T15:58:39;33.20;55.80
1079;DHT22;528;47.872;11.478;2022-07-25T16:01:24;33.20;55.10
1079;DHT22;528;47.872;11.478;2022-07-25T16:03:54;33.10;55.00
1079;DHT22;528;47.872;11.478;2022-07-25T16:06:33;33.00;56.00
1079;DHT22;528;47.872;11.478;2022-07-25T16:09:04;33.00;54.40
1079;DHT22;528;47.872;11.478;2022-07-25T16:11:45;33.00;54.60
1079;DHT22;528;47.872;11.478;2022-07-25T16:14:32;33.00;55.20
1079;DHT22;528;47.872;11.478;2022-07-25T16:17:05;33.00;54.30
1079;DHT22;528;47.872;11.478;2022-07-25T16:19:32;33.00;54.50
1079;DHT22;528;47.872;11.478;2022-07-25T16:22:00;33.00;55.40
1079;DHT22;528;47.872;11.478;2022-07-25T16:24:29;33.00;54.90
1079;DHT22;528;47.872;11.478;2022-07-25T16:27:08;33.00;54.30
1079;DHT22;528;47.872;11.478;2022-07-25T16:29:36;33.00;54.30
1079;DHT22;528;47.872;11.478;2022-07-25T16:32:09;32.90;54.50
1079;DHT22;528;47.872;11.478;2022-07-25T16:34:41;32.90;55.70
1079;DHT22;528;47.872;11.478;2022-07-25T16:37:09;32.90;54.40
1079;DHT22;528;47.872;11.478;2022-07-25T16:39:42;32.80;54.00
1079;DHT22;528;47.872;11.478;2022-07-25T16:42:16;32.80;55.20
1079;DHT22;528;47.872;11.478;2022-07-25T16:48:09;32.80;54.90
1079;DHT22;528;47.872;11.478;2022-07-25T16:50:42;32.80;54.40
1079;DHT22;528;47.872;11.478;2022-07-25T16:53:15;32.80;53.90
1079;DHT22;528;47.872;11.478;2022-07-25T16:55:53;32.80;54.10
1079;DHT22;528;47.872;11.478;2022-07-25T16:58:23;32.70;54.30
1079;DHT22;528;47.872;11.478;2022-07-25T17:00:51;32.70;54.50
1079;DHT22;528;47.872;11.478;2022-07-25T17:03:25;32.60;54.20
1079;DHT22;528;47.872;11.478;2022-07-25T17:06:31;32.60;54.80
1079;DHT22;528;47.872;11.478;2022-07-25T17:09:06;32.60;55.10
1079;DHT22;528;47.872;11.478;2022-07-25T17:11:51;32.50;53.80
1079;DHT22;528;47.872;11.478;2022-07-25T17:14:22;32.50;55.00
1079;DHT22;528;47.872;11.478;2022-07-25T17:17:04;32.30;54.10
1079;DHT22;528;47.872;11.478;2022-07-25T17:19:45;32.30;55.00
1079;DHT22;528;47.872;11.478;2022-07-25T17:22:24;32.20;54.40
1079;DHT22;528;47.872;11.478;2022-07-25T17:25:13;32.20;54.10
1079;DHT22;528;47.872;11.478;2022-07-25T17:27:55;32.10;54.50
1079;DHT22;528;47.872;11.478;2022-07-25T17:30:31;32.00;55.50
1079;DHT22;528;47.872;11.478;2022-07-25T17:33:14;32.00;55.20
1079;DHT22;528;47.872;11.478;2022-07-25T17:35:54;31.90;54.60
1079;DHT22;528;47.872;11.478;2022-07-25T17:38:45;31.90;55.00
1079;DHT22;528;47.872;11.478;2022-07-25T17:41:22;31.80;55.20
1079;DHT22;528;47.872;11.478;2022-07-25T17:44:09;31.70;55.90
1079;DHT22;528;47.872;11.478;2022-07-25T17:46:51;31.70;55.60
1079;DHT22;528;47.872;11.478;2022-07-25T17:52:20;31.50;55.90
1079;DHT22;528;47.872;11.478;2022-07-25T17:54:48;31.50;56.90
1079;DHT22;528;47.872;11.478;2022-07-25T17:57:23;31.40;56.20
1079;DHT22;528;47.872;11.478;2022-07-25T18:00:07;31.30;56.80
1079;DHT22;528;47.872;11.478;2022-07-25T18:02:58;31.30;57.10
1079;DHT22;528;47.872;11.478;2022-07-25T18:05:48;31.20;57.00
1079;DHT22;528;47.872;11.478;2022-07-25T18:08:23;31.20;57.30
1079;DHT22;528;47.872;11.478;2022-07-25T18:11:05;31.10;57.70
1079;DHT22;528;47.872;11.478;2022-07-25T18:13:33;31.10;57.40
1079;DHT22;528;47.872;11.478;2022-07-25T18:16:15;31.00;57.50
1079;DHT22;528;47.872;11.478;2022-07-25T18:18:48;31.00;57.80
1079;DHT22;528;47.872;11.478;2022-07-25T18:21:28;30.90;58.00
1079;DHT22;528;47.872;11.478;2022-07-25T18:24:05;30.80;58.10
1079;DHT22;528;47.872;11.478;2022-07-25T18:26:36;30.70;58.30
1079;DHT22;528;47.872;11.478;2022-07-25T18:29:09;30.70;58.30
1079;DHT22;528;47.872;11.478;2022-07-25T18:31:46;30.70;58.40
1079;DHT22;528;47.872;11.478;2022-07-25T18:34:18;30.60;58.50
1079;DHT22;528;47.872;11.478;2022-07-25T18:36:59;30.60;58.80
1079;DHT22;528;47.872;11.478;2022-07-25T18:39:33;30.50;58.70
1079;DHT22;528;47.872;11.478;2022-07-25T18:42:02;30.50;58.80
1079;DHT22;528;47.872;11.478;2022-07-25T18:44:30;30.50;59.10
1079;DHT22;528;47.872;11.478;2022-07-25T18:47:00;30.50;59.30
1079;DHT22;528;47.872;11.478;2022-07-25T18:49:37;30.40;59.30
1079;DHT22;528;47.872;11.478;2022-07-25T23:58:46;21.30;99.90
